createdAt,value
2022-09-09T00:01:52.784Z,11.32
2022-09-09T00:04:31.324Z,11.98
2022-09-09T00:07:06.787Z,11.80
2022-09-09T00:09:50.154Z,11.70
2022-09-09T00:12:25.952Z,11.20
2022-09-09T00:14:57.447Z,11.88
2022-09-09T00:17:42.582Z,12.48
2022-09-09T00:20:30.646Z,11.30
2022-09-09T00:23:04.365Z,11.75
2022-09-09T00:25:42.922Z,11.82
2022-09-09T00:28:25.614Z,12.07
2022-09-09T00:30:52.152Z,12.27
2022-09-09T00:33:22.128Z,12.98
2022-09-09T00:35:58.703Z,12.18
2022-09-09T00:38:42.355Z,13.35
2022-09-09T00:41:21.358Z,13.45
2022-09-09T00:43:58.527Z,13.32
2022-09-09T00:46:32.116Z,12.90
2022-09-09T00:49:10.362Z,13.13
2022-09-09T00:51:47.826Z,12.90
2022-09-09T00:54:25.730Z,13.20
2022-09-09T00:57:07.450Z,13.25
2022-09-09T01:02:25.799Z,14.20
2022-09-09T01:04:52.292Z,14.55
2022-09-09T01:07:24.521Z,13.43
2022-09-09T01:09:58.071Z,13.82
2022-09-09T01:12:43.012Z,13.18
2022-09-09T01:15:24.318Z,12.70
2022-09-09T01:17:50.672Z,12.85
2022-09-09T01:20:21.822Z,13.98
2022-09-09T01:22:57.176Z,13.23
2022-09-09T01:26:16.633Z,12.23
2022-09-09T01:28:49.621Z,12.82
2022-09-09T01:31:27.970Z,12.43
2022-09-09T01:33:54.619Z,12.70
2022-09-09T01:36:29.034Z,12.30
2022-09-09T01:38:55.650Z,13.05
2022-09-09T01:41:22.566Z,12.52
2022-09-09T01:43:49.809Z,12.85
2022-09-09T01:46:17.580Z,12.20
2022-09-09T01:48:44.701Z,12.00
2022-09-09T01:51:11.588Z,11.38
2022-09-09T01:53:40.209Z,11.82
2022-09-09T01:56:09.603Z,12.48
2022-09-09T01:58:47.977Z,12.50
2022-09-09T02:01:37.394Z,11.88
2022-09-09T02:04:25.194Z,12.45
2022-09-09T02:06:56.158Z,12.25
2022-09-09T02:09:25.759Z,11.50
2022-09-09T02:12:16.740Z,11.55
2022-09-09T02:14:50.092Z,11.93
2022-09-09T02:17:23.822Z,12.13
2022-09-09T02:19:59.163Z,11.20
2022-09-09T02:22:28.751Z,12.10
2022-09-09T02:24:59.379Z,11.63
2022-09-09T02:27:26.373Z,11.75
2022-09-09T02:29:55.969Z,11.73
2022-09-09T02:32:25.377Z,11.52
2022-09-09T02:34:57.882Z,12.00
2022-09-09T02:37:30.582Z,11.45
2022-09-09T02:39:57.147Z,10.88
2022-09-09T02:42:24.856Z,11.38
2022-09-09T02:44:51.290Z,11.15
2022-09-09T02:47:26.123Z,10.73
2022-09-09T02:50:07.613Z,10.98
2022-09-09T02:52:45.582Z,11.90
2022-09-09T02:55:35.355Z,12.13
2022-09-09T02:58:05.447Z,11.15
2022-09-09T03:00:32.051Z,10.57
2022-09-09T03:02:58.516Z,11.60
2022-09-09T03:05:25.343Z,10.32
2022-09-09T03:07:51.986Z,10.10
2022-09-09T03:10:18.537Z,10.02
2022-09-09T03:12:45.043Z,9.95
2022-09-09T03:15:11.926Z,10.77
2022-09-09T03:17:38.437Z,10.02
2022-09-09T03:20:05.220Z,10.10
2022-09-09T03:22:31.814Z,10.05
2022-09-09T03:24:58.232Z,9.65
2022-09-09T03:27:24.845Z,10.45
2022-09-09T03:29:52.038Z,9.80
2022-09-09T03:32:19.239Z,9.50
2022-09-09T03:34:48.348Z,9.02
2022-09-09T03:37:14.765Z,9.05
2022-09-09T03:39:41.342Z,8.77
2022-09-09T03:42:07.992Z,8.52
2022-09-09T03:44:35.778Z,8.85
2022-09-09T03:47:02.360Z,8.25
2022-09-09T03:49:31.338Z,8.02
2022-09-09T03:51:58.439Z,8.18
2022-09-09T03:54:26.349Z,8.57
2022-09-09T03:56:52.819Z,7.60
2022-09-09T03:59:19.361Z,7.45
2022-09-09T04:01:46.522Z,8.85
2022-09-09T04:04:13.338Z,7.97
2022-09-09T04:06:39.931Z,8.45
2022-09-09T04:09:06.327Z,7.57
2022-09-09T04:11:32.787Z,7.82
2022-09-09T04:13:59.392Z,7.85
2022-09-09T04:16:25.878Z,7.18
2022-09-09T04:18:53.930Z,7.82
2022-09-09T04:21:20.337Z,7.03
2022-09-09T04:23:46.851Z,7.55
2022-09-09T04:26:13.266Z,7.50
2022-09-09T04:28:39.700Z,7.13
2022-09-09T04:31:10.107Z,6.78
2022-09-09T04:33:40.100Z,7.28
2022-09-09T04:36:07.801Z,7.15
2022-09-09T04:38:34.551Z,6.93
2022-09-09T04:41:01.082Z,7.40
2022-09-09T04:43:27.937Z,7.00
2022-09-09T04:45:54.582Z,6.10
2022-09-09T04:48:22.086Z,6.90
2022-09-09T04:51:02.315Z,6.88
2022-09-09T04:53:29.112Z,7.15
2022-09-09T04:56:12.901Z,6.97
2022-09-09T04:58:40.647Z,6.57
2022-09-09T05:01:09.099Z,6.72
2022-09-09T05:03:35.935Z,8.57
2022-09-09T05:06:07.391Z,7.65
2022-09-09T05:08:33.907Z,8.52
2022-09-09T05:11:00.610Z,6.13
2022-09-09T05:13:28.817Z,6.72
2022-09-09T05:15:55.993Z,6.00
2022-09-09T05:18:23.263Z,5.80
2022-09-09T05:20:51.919Z,6.10
2022-09-09T05:23:18.311Z,6.45
2022-09-09T05:25:44.814Z,6.32
2022-09-09T05:28:12.569Z,6.57
2022-09-09T05:30:39.368Z,7.05
2022-09-09T05:33:07.115Z,5.85
2022-09-09T05:35:34.439Z,6.65
2022-09-09T05:38:01.548Z,6.22
2022-09-09T05:40:28.042Z,6.25
2022-09-09T05:42:54.690Z,5.43
2022-09-09T05:45:21.502Z,6.15
2022-09-09T05:47:54.403Z,6.18
2022-09-09T05:50:20.836Z,6.90
2022-09-09T05:52:47.290Z,6.75
2022-09-09T05:55:13.787Z,6.47
2022-09-09T05:57:40.360Z,5.55
2022-09-09T06:00:07.450Z,6.78
2022-09-09T06:02:34.081Z,6.63
2022-09-09T06:05:00.871Z,6.00
2022-09-09T06:07:27.349Z,5.68
2022-09-09T06:09:53.905Z,6.18
2022-09-09T06:12:21.853Z,5.75
2022-09-09T06:14:48.229Z,5.65
2022-09-09T06:17:14.651Z,5.50
2022-09-09T06:19:41.053Z,5.30
2022-09-09T06:22:07.493Z,5.03
2022-09-09T06:24:34.004Z,4.88
2022-09-09T06:27:00.820Z,4.38
2022-09-09T06:29:27.416Z,4.35
2022-09-09T06:31:53.928Z,3.85
2022-09-09T06:34:20.626Z,3.85
2022-09-09T06:36:47.152Z,3.97
2022-09-09T06:39:15.297Z,3.78
2022-09-09T06:41:43.398Z,4.13
2022-09-09T06:44:12.760Z,3.40
2022-09-09T06:46:40.599Z,4.55
2022-09-09T06:49:08.305Z,4.72
2022-09-09T06:51:36.892Z,4.00
2022-09-09T06:54:04.573Z,5.28
2022-09-09T06:56:37.151Z,4.30
2022-09-09T06:59:06.095Z,3.92
2022-09-09T07:01:34.940Z,3.22
2022-09-09T07:04:02.844Z,2.60
2022-09-09T07:06:32.282Z,3.00
2022-09-09T07:09:05.164Z,2.70
2022-09-09T07:11:35.075Z,2.92
2022-09-09T07:14:02.241Z,2.90
2022-09-09T07:16:30.318Z,2.80
2022-09-09T07:18:58.790Z,3.00
2022-09-09T07:21:30.062Z,2.15
2022-09-09T07:23:56.872Z,7.65
2022-09-09T07:26:29.515Z,4.00
2022-09-09T07:28:59.403Z,3.05
2022-09-09T07:31:29.029Z,3.30
2022-09-09T07:33:55.546Z,2.75
2022-09-09T07:36:23.088Z,4.25
2022-09-09T07:39:00.928Z,2.80
2022-09-09T07:41:39.480Z,5.97
2022-09-09T07:44:12.089Z,2.40
2022-09-09T07:46:40.785Z,2.90
2022-09-09T07:49:07.730Z,2.28
2022-09-09T07:51:36.919Z,3.38
2022-09-09T07:54:10.380Z,2.45
2022-09-09T07:56:40.114Z,2.28
2022-09-09T07:59:07.437Z,1.90
2022-09-09T08:01:40.447Z,3.08
2022-09-09T08:04:16.432Z,1.80
2022-09-09T08:06:49.204Z,3.38
2022-09-09T08:09:16.569Z,2.25
2022-09-09T08:11:44.144Z,1.83
2022-09-09T08:14:11.917Z,2.28
2022-09-09T08:16:42.174Z,1.98
2022-09-09T08:19:09.046Z,2.10
2022-09-09T08:21:39.947Z,1.92
2022-09-09T08:24:07.318Z,1.35
2022-09-09T08:26:37.123Z,1.73
2022-09-09T08:29:06.403Z,2.03
2022-09-09T08:31:35.470Z,2.70
2022-09-09T08:34:04.387Z,3.20
2022-09-09T08:36:34.341Z,2.13
2022-09-09T08:39:01.861Z,1.60
2022-09-09T08:41:47.716Z,1.80
2022-09-09T08:44:52.326Z,2.05
2022-09-09T08:48:06.282Z,2.25
2022-09-09T08:50:39.473Z,1.73
2022-09-09T08:53:17.414Z,1.50
2022-09-09T08:56:01.956Z,1.95
2022-09-09T08:58:31.568Z,1.90
2022-09-09T09:01:21.913Z,2.33
2022-09-09T09:03:51.638Z,1.92
2022-09-09T09:06:20.634Z,1.95
2022-09-09T09:09:03.600Z,1.33
2022-09-09T09:11:38.540Z,1.73
2022-09-09T09:14:24.408Z,1.83
2022-09-09T09:17:00.425Z,1.35
2022-09-09T09:19:29.475Z,1.77
2022-09-09T09:22:27.467Z,1.33
2022-09-09T09:24:56.712Z,1.45
2022-09-09T09:27:33.140Z,1.58
2022-09-09T09:30:23.900Z,1.58
2022-09-09T09:32:58.573Z,1.92
2022-09-09T09:35:25.046Z,1.77
2022-09-09T09:40:38.486Z,1.60
2022-09-09T09:43:10.304Z,1.83
2022-09-09T09:45:55.248Z,1.30
2022-09-09T09:48:28.479Z,1.63
2022-09-09T09:51:01.551Z,1.55
2022-09-09T09:53:36.999Z,1.40
2022-09-09T09:56:07.849Z,1.77
2022-09-09T09:58:55.328Z,2.17
2022-09-09T10:01:21.740Z,1.30
2022-09-09T10:03:53.589Z,1.40
2022-09-09T10:06:31.758Z,2.08
2022-09-09T10:08:58.147Z,1.60
2022-09-09T10:11:47.492Z,1.55
2022-09-09T10:14:21.257Z,1.33
2022-09-09T10:17:28.224Z,1.60
2022-09-09T10:20:25.761Z,1.38
2022-09-09T10:22:53.565Z,1.55
2022-09-09T10:25:28.350Z,1.48
2022-09-09T10:28:23.540Z,1.40
2022-09-09T10:31:32.650Z,1.42
2022-09-09T10:34:37.633Z,1.40
2022-09-09T10:37:26.940Z,1.50
2022-09-09T10:40:06.177Z,1.40
2022-09-09T10:42:33.479Z,1.85
2022-09-09T10:45:20.241Z,1.80
2022-09-09T10:48:21.760Z,1.95
2022-09-09T10:51:04.620Z,1.70
2022-09-09T10:53:44.450Z,1.73
2022-09-09T10:56:16.231Z,1.00
2022-09-09T10:59:07.377Z,2.33
2022-09-09T11:01:50.301Z,1.73
2022-09-09T11:05:04.430Z,1.52
2022-09-09T11:07:44.210Z,1.15
2022-09-09T11:10:31.637Z,1.40
2022-09-09T11:13:05.099Z,1.40
2022-09-09T11:15:40.157Z,1.63
2022-09-09T11:18:13.026Z,1.40
2022-09-09T11:20:40.102Z,1.60
2022-09-09T11:23:18.677Z,1.30
2022-09-09T11:25:52.968Z,1.60
2022-09-09T11:28:48.497Z,1.40
2022-09-09T11:32:17.600Z,1.50
2022-09-09T11:34:55.579Z,1.40
2022-09-09T11:37:33.393Z,1.20
2022-09-09T11:40:02.636Z,1.05
2022-09-09T11:42:29.230Z,1.52
2022-09-09T11:44:56.030Z,1.17
2022-09-09T11:47:30.859Z,1.00
2022-09-09T11:50:31.346Z,1.05
2022-09-09T11:53:27.350Z,1.30
2022-09-09T11:56:04.759Z,1.55
2022-09-09T11:58:38.767Z,1.65
2022-09-09T12:01:28.204Z,1.63
2022-09-09T12:04:09.766Z,1.20
2022-09-09T12:07:12.257Z,2.53
2022-09-09T12:09:46.885Z,2.30
2022-09-09T12:12:13.250Z,1.17
2022-09-09T12:15:01.096Z,1.15
2022-09-09T12:17:31.069Z,1.42
2022-09-09T12:20:11.915Z,1.08
2022-09-09T12:23:01.346Z,1.35
2022-09-09T12:25:33.798Z,1.27
2022-09-09T12:28:07.575Z,1.80
2022-09-09T12:30:45.866Z,1.27
2022-09-09T12:33:14.159Z,1.60
2022-09-09T12:35:43.867Z,1.15
2022-09-09T12:38:17.842Z,1.40
2022-09-09T12:40:56.336Z,1.42
2022-09-09T12:43:25.410Z,1.08
2022-09-09T12:45:59.860Z,2.22
2022-09-09T12:48:37.824Z,1.60
2022-09-09T12:51:07.633Z,1.40
2022-09-09T12:53:38.206Z,1.90
2022-09-09T12:56:11.081Z,1.47
2022-09-09T12:58:39.184Z,1.80
2022-09-09T13:01:07.462Z,1.50
2022-09-09T13:03:43.454Z,1.30
2022-09-09T13:06:19.718Z,1.40
2022-09-09T13:08:46.185Z,2.42
2022-09-09T13:11:17.835Z,2.45
2022-09-09T13:13:52.641Z,1.23
2022-09-09T13:16:42.027Z,1.10
2022-09-09T13:19:15.079Z,1.45
2022-09-09T13:21:41.737Z,1.42
2022-09-09T13:24:34.013Z,2.00
2022-09-09T13:27:25.471Z,1.20
2022-09-09T13:29:57.635Z,1.40
2022-09-09T13:32:27.811Z,1.38
2022-09-09T13:35:01.183Z,1.30
2022-09-09T13:37:35.667Z,1.63
2022-09-09T13:40:03.786Z,1.42
2022-09-09T13:42:36.201Z,1.50
2022-09-09T13:45:05.232Z,1.35
2022-09-09T13:47:35.440Z,1.85
2022-09-09T13:50:24.090Z,1.60
2022-09-09T13:52:54.034Z,1.55
2022-09-09T13:55:25.302Z,1.52
2022-09-09T13:58:01.580Z,1.48
2022-09-09T14:00:31.071Z,1.70
2022-09-09T14:02:57.822Z,1.65
2022-09-09T14:05:24.687Z,1.58
2022-09-09T14:07:53.161Z,1.52
2022-09-09T14:10:20.376Z,1.10
2022-09-09T14:12:47.636Z,2.10
2022-09-09T14:15:15.410Z,1.80
2022-09-09T14:17:41.868Z,2.53
2022-09-09T14:20:09.498Z,1.98
2022-09-09T14:22:37.054Z,2.53
2022-09-09T14:25:05.184Z,3.92
2022-09-09T14:27:31.606Z,6.05
2022-09-09T14:29:58.823Z,1.60
2022-09-09T14:32:25.266Z,2.30
2022-09-09T14:34:51.676Z,2.45
2022-09-09T14:37:19.223Z,2.40
2022-09-09T14:39:45.786Z,2.45
2022-09-09T14:42:12.259Z,1.50
2022-09-09T14:44:39.372Z,3.08
2022-09-09T14:47:06.530Z,2.00
2022-09-09T14:49:32.937Z,2.00
2022-09-09T14:51:59.377Z,2.65
2022-09-09T14:54:25.779Z,2.20
2022-09-09T14:56:52.214Z,2.15
2022-09-09T14:59:18.734Z,1.75
2022-09-09T15:01:45.184Z,1.85
2022-09-09T15:04:13.798Z,1.80
2022-09-09T15:06:40.938Z,1.50
2022-09-09T15:09:07.459Z,1.75
2022-09-09T15:11:38.653Z,1.50
2022-09-09T15:14:06.851Z,3.38
2022-09-09T15:16:33.941Z,8.70
2022-09-09T15:19:01.992Z,2.92
2022-09-09T15:21:31.817Z,2.75
2022-09-09T15:23:59.081Z,1.30
2022-09-09T15:26:25.888Z,1.10
2022-09-09T15:28:52.544Z,1.70
2022-09-09T15:31:26.273Z,1.55
2022-09-09T15:33:53.842Z,2.10
2022-09-09T15:36:21.409Z,2.30
2022-09-09T15:38:48.543Z,1.50
2022-09-09T15:41:16.387Z,2.47
2022-09-09T15:43:50.944Z,1.92
2022-09-09T15:46:29.614Z,1.30
2022-09-09T15:48:58.363Z,1.77
2022-09-09T15:51:43.945Z,1.27
2022-09-09T15:54:13.266Z,1.20
2022-09-09T15:56:40.421Z,1.83
2022-09-09T15:59:07.056Z,2.00
2022-09-09T16:01:34.714Z,1.73
2022-09-09T16:04:02.939Z,2.85
2022-09-09T16:06:30.702Z,2.80
2022-09-09T16:08:59.443Z,3.67
2022-09-09T16:11:32.132Z,2.70
2022-09-09T16:13:59.490Z,2.15
2022-09-09T16:16:29.212Z,2.53
2022-09-09T16:18:58.283Z,2.60
2022-09-09T16:21:33.074Z,1.60
2022-09-09T16:24:01.753Z,2.22
2022-09-09T16:26:29.542Z,2.40
2022-09-09T16:28:56.405Z,1.95
2022-09-09T16:31:24.850Z,1.83
2022-09-09T16:33:52.180Z,1.95
2022-09-09T16:36:21.525Z,2.13
2022-09-09T16:38:48.343Z,1.88
2022-09-09T16:41:16.031Z,1.70
2022-09-09T16:43:42.831Z,2.13
2022-09-09T16:46:19.216Z,2.33
2022-09-09T16:48:47.465Z,2.47
2022-09-09T16:51:18.377Z,2.03
2022-09-09T16:53:45.451Z,1.55
2022-09-09T16:56:21.312Z,2.38
2022-09-09T16:58:58.558Z,2.20
2022-09-09T17:01:32.450Z,2.75
2022-09-09T17:04:04.205Z,2.65
2022-09-09T17:06:34.151Z,1.63
2022-09-09T17:09:02.830Z,1.85
2022-09-09T17:11:30.643Z,2.25
2022-09-09T17:13:59.091Z,2.20
2022-09-09T17:16:31.240Z,2.58
2022-09-09T17:19:02.168Z,2.22
2022-09-09T17:21:29.382Z,1.83
2022-09-09T17:23:57.177Z,1.50
2022-09-09T17:26:30.294Z,1.90
2022-09-09T17:28:59.750Z,1.58
2022-09-09T17:31:27.397Z,1.70
2022-09-09T17:33:54.275Z,2.30
2022-09-09T17:36:29.743Z,2.17
2022-09-09T17:38:56.367Z,1.92
2022-09-09T17:41:34.840Z,1.70
2022-09-09T17:44:01.711Z,1.58
2022-09-09T17:46:31.279Z,1.50
2022-09-09T17:49:00.768Z,2.65
2022-09-09T17:51:30.599Z,2.30
2022-09-09T17:53:59.866Z,2.42
2022-09-09T17:56:29.479Z,1.90
2022-09-09T17:58:55.889Z,2.50
2022-09-09T18:01:24.543Z,1.92
2022-09-09T18:03:52.158Z,1.95
2022-09-09T18:06:22.075Z,1.90
2022-09-09T18:08:56.679Z,2.10
2022-09-09T18:11:25.889Z,2.13
2022-09-09T18:13:58.047Z,1.92
2022-09-09T18:16:26.262Z,1.98
2022-09-09T18:18:54.318Z,2.22
2022-09-09T18:21:20.710Z,2.33
2022-09-09T18:23:52.135Z,1.70
2022-09-09T18:26:24.534Z,2.63
2022-09-09T18:28:53.789Z,1.50
2022-09-09T18:31:25.645Z,2.00
2022-09-09T18:33:53.483Z,1.60
2022-09-09T18:36:25.728Z,1.58
2022-09-09T18:38:52.676Z,2.08
2022-09-09T18:41:42.874Z,2.00
2022-09-09T18:44:16.499Z,1.15
2022-09-09T18:46:44.602Z,2.05
2022-09-09T18:49:12.419Z,1.65
2022-09-09T18:51:41.208Z,1.23
2022-09-09T18:54:12.317Z,1.58
2022-09-09T18:56:39.311Z,2.28
2022-09-09T18:59:07.912Z,1.80
2022-09-09T19:01:35.902Z,2.58
2022-09-09T19:04:04.371Z,1.38
2022-09-09T19:06:32.821Z,1.75
2022-09-09T19:09:03.144Z,1.35
2022-09-09T19:11:30.518Z,1.40
2022-09-09T19:14:05.188Z,1.38
2022-09-09T19:16:33.921Z,2.00
2022-09-09T19:19:06.312Z,1.70
2022-09-09T19:21:38.222Z,1.67
2022-09-09T19:24:07.798Z,1.40
2022-09-09T19:26:40.740Z,1.80
2022-09-09T19:29:14.361Z,2.05
2022-09-09T19:31:48.857Z,1.88
2022-09-09T19:34:28.704Z,1.40
2022-09-09T19:36:55.406Z,1.58
2022-09-09T19:39:22.234Z,2.00
2022-09-09T19:41:49.077Z,1.80
2022-09-09T19:44:17.094Z,1.55
2022-09-09T19:46:46.563Z,1.90
2022-09-09T19:49:13.430Z,1.60
2022-09-09T19:51:40.015Z,1.42
2022-09-09T19:54:09.168Z,1.55
2022-09-09T19:56:37.809Z,1.40
2022-09-09T19:59:06.555Z,1.27
2022-09-09T20:01:40.075Z,1.50
2022-09-09T20:04:08.383Z,1.30
2022-09-09T20:06:37.654Z,1.30
2022-09-09T20:09:06.014Z,1.30
2022-09-09T20:11:32.754Z,1.35
2022-09-09T20:13:59.211Z,1.65
2022-09-09T20:16:30.507Z,1.63
2022-09-09T20:18:59.518Z,1.10
2022-09-09T20:21:32.237Z,1.35
2022-09-09T20:24:05.869Z,1.67
2022-09-09T20:26:35.011Z,1.50
2022-09-09T20:29:05.318Z,2.20
2022-09-09T20:31:39.300Z,1.27
2022-09-09T20:34:10.908Z,1.40
2022-09-09T20:39:14.795Z,1.23
2022-09-09T20:41:42.148Z,1.23
2022-09-09T20:44:14.147Z,1.65
2022-09-09T20:46:43.203Z,1.30
2022-09-09T20:49:11.234Z,1.40
2022-09-09T20:51:39.188Z,1.30
2022-09-09T20:54:12.136Z,1.40
2022-09-09T20:56:40.779Z,1.83
2022-09-09T20:59:11.331Z,1.50
2022-09-09T21:01:39.123Z,1.80
2022-09-09T21:04:06.553Z,1.80
2022-09-09T21:06:33.066Z,1.42
2022-09-09T21:08:59.485Z,1.85
2022-09-09T21:11:26.109Z,1.65
2022-09-09T21:13:52.558Z,1.70
2022-09-09T21:16:19.500Z,1.98
2022-09-09T21:18:46.057Z,1.90
2022-09-09T21:21:13.207Z,1.85
2022-09-09T21:23:39.719Z,1.38
2022-09-09T21:26:07.569Z,1.40
2022-09-09T21:28:35.996Z,1.45
2022-09-09T21:31:04.111Z,1.48
2022-09-09T21:33:30.670Z,1.48
2022-09-09T21:36:03.546Z,1.50
2022-09-09T21:38:30.345Z,1.60
2022-09-09T21:40:56.857Z,1.63
2022-09-09T21:43:26.049Z,1.67
2022-09-09T21:45:53.649Z,1.83
2022-09-09T21:48:20.116Z,1.50
2022-09-09T21:50:48.059Z,1.50
2022-09-09T21:53:18.095Z,1.77
2022-09-09T21:55:47.676Z,1.63
2022-09-09T21:58:18.477Z,1.67
2022-09-09T22:00:46.891Z,1.33
2022-09-09T22:03:14.899Z,1.88
2022-09-09T22:05:43.150Z,2.03
2022-09-09T22:08:11.739Z,1.77
2022-09-09T22:10:40.093Z,1.77
2022-09-09T22:13:07.245Z,1.55
2022-09-09T22:15:34.703Z,1.33
2022-09-09T22:18:03.210Z,1.55
2022-09-09T22:20:34.722Z,1.65
2022-09-09T22:23:01.624Z,1.48
2022-09-09T22:25:32.256Z,1.52
2022-09-09T22:27:58.702Z,1.10
2022-09-09T22:30:25.144Z,1.65
2022-09-09T22:32:51.916Z,1.48
2022-09-09T22:35:18.331Z,1.92
2022-09-09T22:37:44.781Z,1.65
2022-09-09T22:40:14.063Z,1.50
2022-09-09T22:42:43.291Z,1.55
2022-09-09T22:45:11.623Z,1.88
2022-09-09T22:47:42.333Z,2.58
2022-09-09T22:50:09.812Z,2.97
2022-09-09T22:52:36.227Z,3.33
2022-09-09T22:55:02.612Z,2.28
2022-09-09T22:57:29.095Z,2.80
2022-09-09T22:59:56.085Z,3.33
2022-09-09T23:02:23.318Z,2.53
2022-09-09T23:04:49.753Z,2.15
2022-09-09T23:07:20.906Z,1.70
2022-09-09T23:09:47.775Z,2.00
2022-09-09T23:12:14.894Z,1.60
2022-09-09T23:14:41.533Z,1.77
2022-09-09T23:17:08.821Z,2.22
2022-09-09T23:19:37.045Z,1.52
2022-09-09T23:22:03.717Z,1.80
2022-09-09T23:24:30.220Z,2.05
2022-09-09T23:26:56.685Z,2.17
2022-09-09T23:29:23.162Z,1.58
2022-09-09T23:31:49.741Z,1.40
2022-09-09T23:34:16.211Z,1.77
2022-09-09T23:36:42.837Z,1.80
2022-09-09T23:39:11.273Z,1.85
2022-09-09T23:41:38.127Z,2.10
2022-09-09T23:44:05.213Z,2.08
2022-09-09T23:46:33.778Z,2.15
2022-09-09T23:49:02.382Z,1.70
2022-09-09T23:51:30.547Z,2.00
2022-09-09T23:54:00.347Z,2.13
2022-09-09T23:56:29.688Z,2.40
2022-09-09T23:58:56.323Z,2.30
